中部国際空港の過去48時間の天気

中部国際空港 (Chubu Centrair International)

現在時刻: 10/16 15:47 JST (10/16 06:47 UTC) 以下の時間は現地時間です。

過去48時間のMETAR気象情報
時間 風向 風速(m/s) 視程 気温(℃) 湿度(%) 気圧(hPa) 天気現象
16 15:30 北東 2 10km以上 20 68 1011
16 15:00 北北西 2 10km以上 19 73 1011
16 14:30 不定 1 10km以上 19 73 1011
16 14:00 2 10km以上 19 73 1012
16 13:30 2 10km以上 19 73 1012
16 13:00 北西 2 10km以上 19 78 1013
16 12:30 北西 2 10km以上 19 73 1013
16 12:00 北西 2 10km以上 19 73 1013
16 11:30 北西 2 10km以上 19 78 1013
16 11:00 北北西 3 10km以上 18 77 1014
16 10:30 北北西 3 10km以上 18 73 1014
16 10:00 北北西 4 10km以上 18 77 1014
16 09:30 3 10km以上 18 77 1014
16 09:00 5 10km以上 18 77 1015
16 08:30 5 10km以上 17 83 1015
16 08:00 4 10km以上 17 83 1015
16 07:30 4 10km以上 17 83 1015
16 07:00 北北東 3 10km以上 16 88 1015
16 06:30 北北東 3 10km以上 16 88 1015
16 06:00 4 10km以上 15 94 1015
16 05:30 5 10km以上 15 94 1016
16 05:00 2 10km以上 15 94 1016
16 04:30 北東 1 10km以上 15 94 1015
16 04:00 北東 1 10km以上 15 94 1015
16 03:30 北北東 3 10km以上 15 94 1016
16 03:00 3 10km以上 15 94 1016
16 02:30 北北東 3 10km以上 16 88 1016
16 02:00 北北東 3 10km以上 16 94 1016
16 01:30 4 10km以上 16 94 1016
16 01:00 2 10km以上 15 88 1016
16 00:30 北北東 2 10km以上 15 94 1016
16 00:00 北東 2 10km以上 16 88 1016
15 23:30 北東 3 10km以上 16 94 1016
15 23:00 北東 3 10km以上 16 88 1016
15 22:30 北東 3 10km以上 17 83 1017
15 22:00 北北東 3 10km以上 17 88 1017
15 21:30 東北東 2 10km以上 17 88 1017
15 21:00 北東 2 8000m 17 88 1017
15 20:30 北北東 2 8000m 17 94 1017
15 20:00 東北東 2 10km以上 17 88 1017
15 19:30 北北東 2 10km以上 18 83 1017
15 19:00 1 10km以上 17 88 1017
15 18:30 不定 1 10km以上 18 83 1017
15 18:00 不定 1 9000m 17 88 1017
15 17:30 不定 1 8000m 18 83 1016
15 17:00 北東 2 8000m 18 83 1016
15 16:30 不定 1 8000m 18 83 1017
15 16:00 北東 2 7000m 18 83 1017
15 15:30 不定 1 7000m 18 88 1017
15 15:00 東北東 2 7000m 18 88 1017
15 14:30 東北東 3 7000m 18 88 1016
15 14:00 北東 3 6000m 18 88 1016 弱い雨 もや
15 13:30 北北東 3 6000m 18 88 1017 弱い雨 もや
15 13:00 3 6000m 17 94 1017 弱い雨 もや
15 12:30 北北東 4 4500m 18 88 1017 弱い雨 もや
15 12:00 5 4000m 18 88 1018 弱い雨 もや
15 11:30 3 4000m 18 88 1018 弱い雨 もや
15 11:00 西北西 2 4000m 18 94 1018 弱い雨 もや
15 10:30 3 4000m 18 88 1018 弱い雨 もや
15 10:00 東北東 2 5000m 17 88 1019 弱い雨 もや
15 09:30 不定 1 4500m 17 88 1019 弱い雨 もや
15 09:00 不定 1 4000m 17 88 1020 雨 もや
15 08:30 不定 1 6000m 17 88 1020 強い雨
15 08:00 北東 3 5000m 17 88 1019 弱い雨 もや
15 07:30 北東 2 10km以上 18 83 1019 弱い雨
15 07:00 北北東 4 10km以上 18 77 1019 周辺でしゅう雨
15 06:30 3 10km以上 18 77 1019
15 06:00 5 10km以上 18 83 1019
15 05:30 北北東 3 10km以上 18 83 1019
15 05:00 3 10km以上 18 83 1019
15 04:30 4 10km以上 18 83 1019
15 04:00 4 10km以上 18 77 1018
15 03:30 4 10km以上 18 77 1018
15 03:00 4 10km以上 18 77 1018
15 02:30 北北東 3 10km以上 19 73 1019
15 02:00 北東 2 10km以上 19 78 1019
15 01:30 北東 3 10km以上 19 83 1019
15 01:00 北東 3 10km以上 19 83 1019
15 00:30 北東 3 10km以上 19 83 1019
15 00:00 東北東 3 10km以上 19 83 1019
14 23:30 東北東 3 10km以上 20 68 1019
14 23:00 北東 2 10km以上 20 68 1019
14 22:30 2 10km以上 19 73 1019
14 22:00 3 10km以上 19 73 1019
14 21:30 西北西 4 10km以上 21 73 1020
14 21:00 南南西 4 10km以上 21 78 1019
14 20:30 南西 3 10km以上 21 69 1019
14 20:00 南西 3 10km以上 21 69 1019
14 19:30 南南西 3 10km以上 22 57 1019
14 19:00 南南西 4 10km以上 21 64 1019
14 18:30 南南西 3 10km以上 21 64 1019
14 18:00 3 10km以上 21 64 1018
14 17:30 3 10km以上 20 68 1018
14 17:00 3 10km以上 21 64 1018
14 16:30 2 10km以上 21 64 1018
14 16:00 2 10km以上 22 57 1018
RJGG 160630Z 05003KT 010V090 9999 FEW020 BKN/// 20/14 Q1011 NOSIG
RJGG 160600Z 34003KT 9999 FEW020 BKN/// 19/14 Q1011 NOSIG
RJGG 160530Z VRB02KT 9999 FEW020 BKN/// 19/14 Q1011 NOSIG
RJGG 160500Z 35004KT 320V040 9999 FEW020 BKN/// 19/14 Q1012 NOSIG
RJGG 160430Z 35004KT 9999 FEW020 BKN/// 19/14 Q1012 NOSIG
RJGG 160400Z 32003KT 9999 FEW020 SCT140 BKN/// 19/15 Q1013 NOSIG
RJGG 160330Z 31003KT 280V350 9999 FEW020 BKN140 BKN/// 19/14 Q1013 NOSIG
RJGG 160300Z 31004KT 9999 FEW020 SCT140 BKN/// 19/14 Q1013 NOSIG
RJGG 160230Z 31004KT 9999 FEW020 BKN/// 19/15 Q1013 NOSIG
RJGG 160200Z 34006KT 9999 FEW020 BKN/// 18/14 Q1014 NOSIG
RJGG 160130Z 33006KT 9999 FEW015 BKN/// 18/13 Q1014 NOSIG
RJGG 160100Z 34007KT 9999 FEW015 BKN/// 18/14 Q1014 NOSIG
RJGG 160030Z 36006KT 330V040 9999 FEW015 BKN/// 18/14 Q1014 NOSIG
RJGG 160000Z 35009KT 9999 FEW015 BKN/// 18/14 Q1015 NOSIG
RJGG 152330Z 35009KT 9999 FEW015 BKN/// 17/14 Q1015 NOSIG
RJGG 152300Z 01008KT 9999 FEW015 BKN/// 17/14 Q1015 NOSIG
RJGG 152230Z 35008KT 9999 FEW010 BKN/// 17/14 Q1015 NOSIG
RJGG 152200Z 03005KT 9999 FEW010 BKN/// 16/14 Q1015 NOSIG
RJGG 152130Z 02006KT 9999 FEW010 BKN/// 16/14 Q1015 NOSIG
RJGG 152100Z 01007KT 9999 FEW007 BKN/// 15/14 Q1015 NOSIG
RJGG 152030Z 35010KT 9999 FEW007 BKN/// 15/14 Q1016 NOSIG
RJGG 152000Z 01004KT 9999 FEW007 BKN/// 15/14 Q1016 NOSIG
RJGG 151930Z 04002KT 9999 FEW010 BKN/// 15/14 Q1015 NOSIG
RJGG 151900Z 05002KT 9999 FEW007 SCT/// 15/14 Q1015 NOSIG
RJGG 151830Z 02005KT 9999 FEW007 BKN/// 15/14 Q1016 NOSIG
RJGG 151800Z 36005KT 9999 FEW007 BKN/// 15/14 Q1016 NOSIG
RJGG 151730Z 03005KT 9999 FEW007 BKN/// 16/14 Q1016 NOSIG
RJGG 151700Z 03006KT 9999 FEW008 BKN/// 16/15 Q1016 NOSIG
RJGG 151630Z 36008KT 9999 FEW008 SCT010 BKN/// 16/15 Q1016 NOSIG
RJGG 151600Z 01004KT 9999 FEW010 BKN/// 15/13 Q1016 NOSIG
RJGG 151530Z 03004KT 9999 FEW010 BKN/// 15/14 Q1016 NOSIG
RJGG 151500Z 04003KT 9999 FEW010 BKN/// 16/14 Q1016 NOSIG
RJGG 151430Z 05005KT 9999 FEW010 BKN/// 16/15 Q1016 NOSIG
RJGG 151400Z 04005KT 9999 FEW010 BKN/// 16/14 Q1016 NOSIG
RJGG 151330Z 05006KT 9999 FEW010 BKN/// 17/14 Q1017 NOSIG
RJGG 151300Z 03005KT 9999 FEW010 BKN/// 17/15 Q1017 NOSIG
RJGG 151230Z 06003KT 9999 FEW010 BKN/// 17/15 Q1017 NOSIG
RJGG 151200Z 05004KT 8000 FEW010 SCT015 BKN/// 17/15 Q1017 NOSIG
RJGG 151130Z 03004KT 350V070 8000 FEW010 BKN/// 17/16 Q1017 NOSIG
RJGG 151100Z 06003KT 9999 FEW015 BKN/// 17/15 Q1017 NOSIG
RJGG 151030Z 02003KT 330V050 9999 FEW015 BKN/// 18/15 Q1017 NOSIG
RJGG 151000Z 36002KT 9999 FEW010 BKN/// 17/15 Q1017 NOSIG
RJGG 150930Z VRB01KT 9999 FEW010 BKN/// 18/15 Q1017 NOSIG
RJGG 150900Z VRB02KT 9000 FEW010 BKN/// 17/15 Q1017 NOSIG
RJGG 150830Z VRB02KT 8000 FEW010 BKN/// 18/15 Q1016 NOSIG
RJGG 150800Z 05003KT 350V100 8000 FEW010 BKN/// 18/15 Q1016 NOSIG
RJGG 150730Z VRB02KT 8000 FEW010 SCT090 BKN/// 18/15 Q1017 BECMG 06005KT
RJGG 150700Z 05003KT 330V080 7000 FEW010 SCT040 BKN090 18/15 Q1017 NOSIG
RJGG 150630Z VRB02KT 7000 FEW010 SCT040 BKN090 18/16 Q1017 BECMG 02005KT
RJGG 150600Z 06003KT 030V100 7000 FEW010 SCT040 BKN080 18/16 Q1017 NOSIG
RJGG 150530Z 06005KT 020V090 7000 FEW010 SCT040 BKN080 18/16 Q1016 NOSIG
RJGG 150500Z 04005KT 6000 -RA BR FEW005 SCT040 BKN080 18/16 Q1016 NOSIG
RJGG 150430Z 03005KT 6000 -RA BR FEW015 SCT030 BKN080 18/16 Q1017 NOSIG
RJGG 150400Z 01006KT 6000 -RA BR FEW005 SCT015 BKN080 17/16 Q1017 NOSIG
RJGG 150330Z 02007KT 4500 -RA BR FEW005 SCT010 BKN050 18/16 Q1017 BECMG 8000 NSW
RJGG 150300Z 35009KT 4000 -RA BR FEW005 SCT010 BKN050 18/16 Q1018 BECMG 14005KT 8000 NSW
RJGG 150230Z 35005KT 330V030 4000 -RA BR FEW005 SCT010 BKN050 18/16 Q1018 BECMG 22005KT 8000 NSW
RJGG 150200Z 29004KT 4000 -RA BR FEW005 SCT010 BKN050 18/17 Q1018 BECMG 22005KT 8000 NSW
RJGG 150130Z 10006KT 020V130 4000 -RA BR FEW010 SCT030 BKN050 18/16 Q1018 BECMG 8000 NSW
RJGG 150100Z 06004KT 340V090 5000 -RA BR FEW010 SCT030 BKN050 17/15 Q1019 BECMG 14005KT
RJGG 150030Z VRB02KT 4500 R36/1800D -RA BR FEW010 SCT030 BKN050 17/15 Q1019 BECMG 14005KT 8000 NSW
RJGG 150000Z VRB02KT 4000 R36/0800V1700U RA BR FEW010 SCT030 BKN050 17/15 Q1020 NOSIG
RJGG 142330Z VRB02KT 6000 R36/P1800N +RA FEW010 SCT030 BKN050 17/15 Q1020 TEMPO 4000 RA BR
RJGG 142300Z 04005KT 010V080 5000 -RA BR FEW015 SCT020 BKN040 17/15 Q1019 TEMPO 4000 -RA BR
RJGG 142230Z 05004KT 010V090 9999 -RA FEW015 SCT060 BKN/// 18/15 Q1019 NOSIG
RJGG 142200Z 02007KT 9999 VCSH FEW015 SCT070 BKN120 18/14 Q1019 NOSIG
RJGG 142130Z 01006KT 9999 FEW015 BKN130 18/14 Q1019 NOSIG
RJGG 142100Z 01009KT 9999 FEW015 SCT070 BKN130 18/15 Q1019 NOSIG
RJGG 142030Z 02006KT 9999 FEW015 BKN070 18/15 Q1019 NOSIG
RJGG 142000Z 01006KT 9999 FEW015 BKN070 18/15 Q1019 NOSIG
RJGG 141930Z 36008KT 9999 FEW015 BKN080 18/15 Q1019 NOSIG
RJGG 141900Z 01007KT 350V050 9999 FEW015 BKN150 18/14 Q1018 NOSIG
RJGG 141830Z 36007KT 9999 FEW015 BKN150 18/14 Q1018 NOSIG
RJGG 141800Z 01007KT 9999 FEW015 BKN140 18/14 Q1018 NOSIG
RJGG 141730Z 03006KT 9999 FEW015 BKN140 19/14 Q1019 NOSIG
RJGG 141700Z 04004KT 020V080 9999 FEW015 BKN140 19/15 Q1019 NOSIG
RJGG 141630Z 04006KT 9999 FEW020 BKN150 19/16 Q1019 NOSIG
RJGG 141600Z 05005KT 9999 FEW020 SCT070 BKN160 19/16 Q1019 NOSIG
RJGG 141530Z 05005KT 9999 FEW020 SCT070 BKN/// 19/16 Q1019 NOSIG
RJGG 141500Z 06005KT 9999 FEW020 BKN070 BKN/// 19/16 Q1019 NOSIG
RJGG 141430Z 07005KT 9999 FEW020 SCT070 BKN/// 20/14 Q1019 NOSIG
RJGG 141400Z 05004KT 9999 FEW020 SCT070 BKN/// 20/14 Q1019 NOSIG
RJGG 141330Z 36004KT 9999 FEW020 BKN/// 19/14 Q1019 NOSIG
RJGG 141300Z 36005KT 9999 FEW020 BKN/// 19/14 Q1019 NOSIG
RJGG 141230Z 30007KT 9999 FEW020 BKN/// 21/16 Q1020 NOSIG
RJGG 141200Z 21008KT 9999 FEW020 BKN/// 21/17 Q1019 BECMG 32005KT
RJGG 141130Z 22005KT 9999 FEW020 BKN/// 21/15 Q1019 BECMG 32005KT
RJGG 141100Z 23006KT 9999 FEW020 BKN/// 21/15 Q1019 NOSIG
RJGG 141030Z 21005KT 9999 FEW020 BKN/// 22/13 Q1019 NOSIG
RJGG 141000Z 21007KT 9999 FEW020 BKN/// 21/14 Q1019 NOSIG
RJGG 140930Z 20005KT 9999 FEW015 BKN/// 21/14 Q1019 NOSIG
RJGG 140900Z 18005KT 9999 FEW015 BKN/// 21/14 Q1018 NOSIG
RJGG 140830Z 18006KT 9999 FEW015 BKN/// 20/14 Q1018 NOSIG
RJGG 140800Z 19005KT 9999 FEW015 BKN/// 21/14 Q1018 NOSIG
RJGG 140730Z 18004KT 9999 FEW015 BKN/// 21/14 Q1018 NOSIG
RJGG 140700Z 17004KT 140V210 9999 FEW015 BKN/// 22/13 Q1018 NOSIG